Site contains unofficial IBTrACS data. Visit the IBTrACS Website to access archived data.

1861 Hurricane NOT_NAMED (1861221N13316)


IBTrACS version v04r00. Visit IBTrACS website for data access.
Please direct all questions to the IBTrACS Q and A forum

Storm track - Intensity - Wind Radii - Intensity Data - Source Data - All data

Summary Information

Storm ID 1861221N13316
Start Aug 9 06Z
Landfall Aug 13 18Z, Aug 17 21Z
Max Intensity 80 kt (Aug 15 18Z), 982 mb (Aug 17 00Z)
End Aug 18 12Z
ATCF IDs
Track status Best track data.

Storm track plot

Map of storm track

Intensity plots

Map of storm track

Radial wind information

No radial wind information for this storm


Position and Intensity Table

BASIN ISO_TIME_________ NATURE LAT LON MLC WIND MLC PRES
degrees north degrees east kts mb
NA 1861-08-09 06:00:00 TS 12.50 -44.00 30
NA 09:00:00 TS 12.55 -44.81 30
NA 12:00:00 TS 12.60 -45.60 30
NA 15:00:00 TS 12.65 -46.36 30
NA 18:00:00 TS 12.70 -47.10 30
NA 21:00:00 TS 12.76 -47.85 30
NA 1861-08-10 00:00:00 TS 12.80 -48.60 30
NA 03:00:00 TS 12.80 -49.34 30
NA 06:00:00 TS 12.80 -50.10 30
NA 09:00:00 TS 12.84 -50.90 30
NA 12:00:00 TS 12.90 -51.70 30
NA 15:00:00 TS 12.95 -52.45 30
NA 18:00:00 TS 13.00 -53.20 30
NA 21:00:00 TS 13.06 -54.00 30
NA 1861-08-11 00:00:00 TS 13.10 -54.80 30
NA 03:00:00 TS 13.11 -55.55 30
NA 06:00:00 TS 13.10 -56.30 30
NA 09:00:00 TS 13.06 -57.12 30
NA 12:00:00 TS 13.10 -57.90 30
NA 15:00:00 TS 13.35 -58.53 32
NA 18:00:00 TS 13.70 -59.10 35
NA 21:00:00 TS 14.00 -59.71 35
NA 1861-08-12 00:00:00 TS 14.30 -60.30 35
NA 03:00:00 TS 14.59 -60.85 35
NA 06:00:00 TS 14.90 -61.40 35
NA 09:00:00 TS 15.25 -61.99 35
NA 12:00:00 TS 15.60 -62.60 35
NA 15:00:00 TS 15.91 -63.20 35
NA 18:00:00 TS 16.20 -63.80 35
NA 21:00:00 TS 16.49 -64.39 35
NA 1861-08-13 00:00:00 TS 16.80 -65.00 35
NA 03:00:00 TS 17.15 -65.64 35
NA 06:00:00 TS 17.50 -66.30 35
NA 09:00:00 TS 17.81 -66.96 35
NA 12:00:00 TS 18.10 -67.60 35
NA 15:00:00 TS 18.39 -68.20 37
NA 18:00:00 TS 18.70 -68.80 40
NA 21:00:00 TS 19.05 -69.45 40
NA 1861-08-14 00:00:00 TS 19.40 -70.10 40
NA 03:00:00 TS 19.71 -70.70 42
NA 06:00:00 TS 20.00 -71.30 45
NA 09:00:00 TS 20.30 -71.95 47
NA 12:00:00 TS 20.60 -72.60 50
NA 15:00:00 TS 20.90 -73.20 52
NA 18:00:00 TS 21.20 -73.80 55
NA 21:00:00 TS 21.49 -74.45 57
NA 1861-08-15 00:00:00 TS 21.80 -75.10 60
NA 03:00:00 TS 22.15 -75.72 60
NA 06:00:00 TS 22.50 -76.30 60
NA 09:00:00 TS 22.81 -76.85 67
NA 12:00:00 TS 23.10 -77.40 75
NA 15:00:00 TS 23.39 -77.99 77
NA 18:00:00 TS 23.70 -78.60 80
NA 21:00:00 TS 24.07 -79.20 80
NA 1861-08-16 00:00:00 TS 24.40 -79.80 80
NA 03:00:00 TS 24.54 -80.39 80
NA 06:00:00 TS 24.70 -81.00 80
NA 09:00:00 TS 25.02 -81.69 80
NA 12:00:00 TS 25.50 -82.30 80
NA 15:00:00 TS 26.12 -82.64 77
NA 18:00:00 TS 26.90 -83.00 75
NA 21:00:00 TS 27.93 -83.72 75
NA 1861-08-17 00:00:00 TS 28.80 -84.40 75 982
NA 03:00:00 TS 29.07 -84.68 75
NA 06:00:00 TS 29.10 -84.80 75
NA 09:00:00 TS 29.20 -84.87 75
NA 12:00:00 TS 29.40 -85.20 75
NA 15:00:00 TS 29.83 -86.19 70
NA 18:00:00 TS 30.30 -87.30 65
NA 21:00:00 TS 30.61 -87.95 57
NA 1861-08-18 00:00:00 TS 30.90 -88.50 50
NA 03:00:00 TS 31.23 -89.21 40
NA 06:00:00 TS 31.60 -90.00 30
NA 09:00:00 TS 31.99 -90.88 30
NA 12:00:00 TS 32.40 -91.80 30

Source Information

Agency Information
USA
TOKYO
CMA
HKO
NEWDELHI
REUNION
BOM
NADI
WELLINGTON
DS824
TD9636
TD9635
NEUMANN
MLC

All available IBTrACS Data

SEASON BASIN SUBBASIN ISO_TIME_________ NATURE LAT LON DIST2LAND LANDFALL IFLAG USA SSHS MLC LAT MLC LON MLC CLASS MLC WIND MLC PRES STORM SPEED STORM DIR
Year degrees north degrees east km km 1 degrees north degrees east kts mb kts degrees
1861 NA NA 1861-08-09 06:00:00 TS 12.50 -44.00 1220 1164 _____________O -1 12.50 -44.00 TD 30 16 274
1861 NA NA 09:00:00 TS 12.55 -44.81 1172 1121 _____________P -1 12.55 -44.81 TD 30 16 274
1861 NA NA 12:00:00 TS 12.60 -45.60 1121 1079 _____________O -1 12.60 -45.60 TD 30 15 274
1861 NA NA 15:00:00 TS 12.65 -46.36 1072 1034 _____________P -1 12.65 -46.36 TD 30 15 274
1861 NA NA 18:00:00 TS 12.70 -47.10 1034 997 _____________O -1 12.70 -47.10 TD 30 15 274
1861 NA NA 21:00:00 TS 12.76 -47.85 1001 958 _____________P -1 12.76 -47.85 TD 30 15 274
1861 NA NA 1861-08-10 00:00:00 TS 12.80 -48.60 958 923 _____________O -1 12.80 -48.60 TD 30 15 272
1861 NA NA 03:00:00 TS 12.80 -49.34 923 890 _____________P -1 12.80 -49.34 TD 30 15 270
1861 NA NA 06:00:00 TS 12.80 -50.10 890 853 _____________O -1 12.80 -50.10 TD 30 15 272
1861 NA NA 09:00:00 TS 12.84 -50.90 853 830 _____________P -1 12.84 -50.90 TD 30 16 274
1861 NA NA 12:00:00 TS 12.90 -51.70 830 808 _____________O -1 12.90 -51.70 TD 30 15 274
1861 NA NA 15:00:00 TS 12.95 -52.45 805 802 _____________P -1 12.95 -52.45 TD 30 15 274
1861 NA NA 18:00:00 TS 13.00 -53.20 802 790 _____________O -1 13.00 -53.20 TD 30 15 274
1861 NA NA 21:00:00 TS 13.06 -54.00 790 726 _____________P -1 13.06 -54.00 TD 30 16 274
1861 NA NA 1861-08-11 00:00:00 TS 13.10 -54.80 726 656 _____________O -1 13.10 -54.80 TD 30 15 272
1861 NA NA 03:00:00 TS 13.11 -55.55 646 577 _____________P -1 13.11 -55.55 TD 30 15 270
1861 NA NA 06:00:00 TS 13.10 -56.30 577 502 _____________O -1 13.10 -56.30 TD 30 15 268
1861 NA NA 09:00:00 TS 13.06 -57.12 502 431 _____________P -1 13.06 -57.12 TD 30 16 270
1861 NA NA 12:00:00 TS 13.10 -57.90 431 398 _____________O -1 13.10 -57.90 TD 30 14 282
1861 NA NA 15:00:00 TS 13.35 -58.53 406 390 _____________P -1 13.35 -58.53 TD 32 13 297
1861 NA NA 18:00:00 TS 13.70 -59.10 394 388 _____________O -1 13.70 -59.10 TS 35 13 299
1861 NA CS 21:00:00 TS 14.00 -59.71 395 391 _____________P -1 14.00 -59.71 TS 35 13 297
1861 NA CS 1861-08-12 00:00:00 TS 14.30 -60.30 410 408 _____________O -1 14.30 -60.30 TS 35 13 298
1861 NA CS 03:00:00 TS 14.59 -60.85 436 436 _____________P -1 14.59 -60.85 TS 35 12 299
1861 NA CS 06:00:00 TS 14.90 -61.40 470 470 _____________O -1 14.90 -61.40 TS 35 13 301
1861 NA CS 09:00:00 TS 15.25 -61.99 504 431 _____________P -1 15.25 -61.99 TS 35 14 301
1861 NA CS 12:00:00 TS 15.60 -62.60 431 362 _____________O -1 15.60 -62.60 TS 35 13 299
1861 NA CS 15:00:00 TS 15.91 -63.20 362 292 _____________P -1 15.91 -63.20 TS 35 13 297
1861 NA CS 18:00:00 TS 16.20 -63.80 292 224 _____________O -1 16.20 -63.80 TS 35 13 297
1861 NA CS 21:00:00 TS 16.49 -64.39 224 158 _____________P -1 16.49 -64.39 TS 35 13 298
1861 NA CS 1861-08-13 00:00:00 TS 16.80 -65.00 158 102 _____________O -1 16.80 -65.00 TS 35 14 299
1861 NA CS 03:00:00 TS 17.15 -65.64 102 44 _____________P -1 17.15 -65.64 TS 35 14 299
1861 NA CS 06:00:00 TS 17.50 -66.30 45 11 _____________O -1 17.50 -66.30 TS 35 14 298
1861 NA CS 09:00:00 TS 17.81 -66.96 15 0 _____________P -1 17.81 -66.96 TS 35 14 296
1861 NA CS 12:00:00 TS 18.10 -67.60 42 23 _____________O -1 18.10 -67.60 TS 35 13 296
1861 NA CS 15:00:00 TS 18.39 -68.20 23 0 _____________P -1 18.39 -68.20 TS 37 13 298
1861 NA NA 18:00:00 TS 18.70 -68.80 0 0 _____________O -1 18.70 -68.80 TS 40 14 299
1861 NA NA 21:00:00 TS 19.05 -69.45 0 0 _____________P -1 19.05 -69.45 TS 40 14 300
1861 NA NA 1861-08-14 00:00:00 TS 19.40 -70.10 0 0 _____________O -1 19.40 -70.10 TS 40 14 299
1861 NA NA 03:00:00 TS 19.71 -70.70 0 0 _____________P -1 19.71 -70.70 TS 42 13 298
1861 NA NA 06:00:00 TS 20.00 -71.30 22 22 _____________O -1 20.00 -71.30 TS 45 13 297
1861 NA NA 09:00:00 TS 20.30 -71.95 59 59 _____________P -1 20.30 -71.95 TS 47 14 296
1861 NA NA 12:00:00 TS 20.60 -72.60 68 11 _____________O -1 20.60 -72.60 TS 50 13 297
1861 NA NA 15:00:00 TS 20.90 -73.20 11 0 _____________P -1 20.90 -73.20 TS 52 13 298
1861 NA NA 18:00:00 TS 21.20 -73.80 15 15 _____________O -1 21.20 -73.80 TS 55 13 297
1861 NA NA 21:00:00 TS 21.49 -74.45 94 94 _____________P -1 21.49 -74.45 TS 57 14 296
1861 NA NA 1861-08-15 00:00:00 TS 21.80 -75.10 103 98 _____________O -1 21.80 -75.10 TS 60 13 299
1861 NA NA 03:00:00 TS 22.15 -75.72 113 113 _____________P -1 22.15 -75.72 TS 60 13 302
1861 NA NA 06:00:00 TS 22.50 -76.30 121 114 _____________O -1 22.50 -76.30 TS 60 12 302
1861 NA NA 09:00:00 TS 22.81 -76.85 124 124 _____________P -1 22.81 -76.85 TS 67 12 301
1861 NA NA 12:00:00 TS 23.10 -77.40 136 89 _____________O -1 23.10 -77.40 HU 75 12 299
1861 NA NA 15:00:00 TS 23.39 -77.99 89 73 _____________P -1 23.39 -77.99 HU 77 13 299
1861 NA NA 18:00:00 TS 23.70 -78.60 82 82 _____________O -1 23.70 -78.60 HU 80 13 302
1861 NA NA 21:00:00 TS 24.07 -79.20 90 90 _____________P -1 24.07 -79.20 HU 80 13 303
1861 NA NA 1861-08-16 00:00:00 TS 24.40 -79.80 98 67 _____________O -1 24.40 -79.80 HU 80 12 293
1861 NA NA 03:00:00 TS 24.54 -80.39 67 45 _____________P -1 24.54 -80.39 HU 80 11 285
1861 NA NA 06:00:00 TS 24.70 -81.00 45 33 _____________O -1 24.70 -81.00 HU 80 13 292
1861 NA GM 09:00:00 TS 25.02 -81.69 55 55 _____________P -1 25.02 -81.69 HU 80 14 304
1861 NA GM 12:00:00 TS 25.50 -82.30 74 68 _____________O -1 25.50 -82.30 HU 80 14 322
1861 NA GM 15:00:00 TS 26.12 -82.64 74 54 _____________P -1 26.12 -82.64 HU 77 15 336
1861 NA GM 18:00:00 TS 26.90 -83.00 59 51 _____________O -1 26.90 -83.00 HU 75 21 332
1861 NA GM 21:00:00 TS 27.93 -83.72 78 78 _____________P -1 27.93 -83.72 HU 75 23 327
1861 NA GM 1861-08-17 00:00:00 TS 28.80 -84.40 111 69 _____________O -1 28.80 -84.40 HU 75 982 14 323
1861 NA GM 03:00:00 TS 29.07 -84.68 69 67 _____________P -1 29.07 -84.68 HU 75 5 311
1861 NA GM 06:00:00 TS 29.10 -84.80 67 55 _____________O -1 29.10 -84.80 HU 75 2 308
1861 NA GM 09:00:00 TS 29.20 -84.87 55 33 _____________P -1 29.20 -84.87 HU 75 5 311
1861 NA GM 12:00:00 TS 29.40 -85.20 33 22 _____________O -1 29.40 -85.20 HU 75 13 299
1861 NA GM 15:00:00 TS 29.83 -86.19 53 0 _____________P -1 29.83 -86.19 HU 70 20 296
1861 NA GM 18:00:00 TS 30.30 -87.30 9 0 _____________O -1 30.30 -87.30 HU 65 17 297
1861 NA GM 21:00:00 TS 30.61 -87.95 0 0 _____________P -1 30.61 -87.95 HU 57 12 300
1861 NA NA 1861-08-18 00:00:00 TS 30.90 -88.50 0 0 _____________O -1 30.90 -88.50 TS 50 12 300
1861 NA NA 03:00:00 TS 31.23 -89.21 0 0 _____________P -1 31.23 -89.21 TS 40 15 299
1861 NA NA 06:00:00 TS 31.60 -90.00 0 0 _____________O -1 31.60 -90.00 TD 30 16 298
1861 NA NA 09:00:00 TS 31.99 -90.88 0 0 _____________P -1 31.99 -90.88 TD 30 17 298
1861 NA NA 12:00:00 TS 32.40 -91.80 0 _____________O -1 32.40 -91.80 TD 30 18 298